sensor_id;sensor_type;location;lat;lon;timestamp;P1;durP1;ratioP1;P2;durP2;ratioP2
51556;SDS011;38766;53.194;5.532;2023-08-01T00:02:19;9.48;;;3.72;;
51556;SDS011;38766;53.194;5.532;2023-08-01T00:04:44;9.40;;;3.35;;
51556;SDS011;38766;53.194;5.532;2023-08-01T00:07:10;9.18;;;2.80;;
51556;SDS011;38766;53.194;5.532;2023-08-01T00:09:36;6.72;;;3.10;;
51556;SDS011;38766;53.194;5.532;2023-08-01T00:12:01;8.60;;;3.20;;
51556;SDS011;38766;53.194;5.532;2023-08-01T00:14:27;9.48;;;3.25;;
51556;SDS011;38766;53.194;5.532;2023-08-01T00:16:53;8.38;;;3.20;;
51556;SDS011;38766;53.194;5.532;2023-08-01T00:19:18;8.20;;;3.03;;
51556;SDS011;38766;53.194;5.532;2023-08-01T00:21:44;10.00;;;3.50;;
51556;SDS011;38766;53.194;5.532;2023-08-01T00:24:10;7.32;;;2.67;;
51556;SDS011;38766;53.194;5.532;2023-08-01T00:26:36;5.60;;;3.13;;
51556;SDS011;38766;53.194;5.532;2023-08-01T00:29:01;7.80;;;2.90;;
51556;SDS011;38766;53.194;5.532;2023-08-01T00:31:27;7.80;;;2.90;;
51556;SDS011;38766;53.194;5.532;2023-08-01T00:33:53;8.68;;;3.20;;
51556;SDS011;38766;53.194;5.532;2023-08-01T00:36:18;8.73;;;3.55;;
51556;SDS011;38766;53.194;5.532;2023-08-01T00:38:44;5.88;;;3.20;;
51556;SDS011;38766;53.194;5.532;2023-08-01T00:41:09;8.25;;;3.53;;
51556;SDS011;38766;53.194;5.532;2023-08-01T00:43:35;7.95;;;3.65;;
51556;SDS011;38766;53.194;5.532;2023-08-01T00:46:03;8.43;;;3.45;;
51556;SDS011;38766;53.194;5.532;2023-08-01T00:48:31;7.50;;;3.85;;
51556;SDS011;38766;53.194;5.532;2023-08-01T00:51:01;8.63;;;3.67;;
51556;SDS011;38766;53.194;5.532;2023-08-01T00:53:30;12.05;;;4.00;;
51556;SDS011;38766;53.194;5.532;2023-08-01T00:55:56;7.05;;;3.40;;
51556;SDS011;38766;53.194;5.532;2023-08-01T00:58:23;8.60;;;3.75;;
51556;SDS011;38766;53.194;5.532;2023-08-01T01:00:48;7.20;;;3.33;;
51556;SDS011;38766;53.194;5.532;2023-08-01T01:03:14;8.80;;;3.60;;
51556;SDS011;38766;53.194;5.532;2023-08-01T01:06:01;10.65;;;4.03;;
51556;SDS011;38766;53.194;5.532;2023-08-01T01:08:42;7.53;;;3.08;;
51556;SDS011;38766;53.194;5.532;2023-08-01T01:11:07;9.75;;;3.53;;
51556;SDS011;38766;53.194;5.532;2023-08-01T01:13:33;10.43;;;3.60;;
51556;SDS011;38766;53.194;5.532;2023-08-01T01:15:59;7.78;;;3.75;;
51556;SDS011;38766;53.194;5.532;2023-08-01T01:18:24;9.13;;;4.05;;
51556;SDS011;38766;53.194;5.532;2023-08-01T01:20:50;9.18;;;3.70;;
51556;SDS011;38766;53.194;5.532;2023-08-01T01:23:16;7.22;;;3.53;;
51556;SDS011;38766;53.194;5.532;2023-08-01T01:25:43;6.03;;;3.40;;
51556;SDS011;38766;53.194;5.532;2023-08-01T01:28:10;6.30;;;3.85;;
51556;SDS011;38766;53.194;5.532;2023-08-01T01:30:37;7.10;;;3.28;;
51556;SDS011;38766;53.194;5.532;2023-08-01T01:33:03;11.32;;;4.05;;
51556;SDS011;38766;53.194;5.532;2023-08-01T01:35:30;10.00;;;3.95;;
51556;SDS011;38766;53.194;5.532;2023-08-01T01:37:58;13.38;;;3.90;;
51556;SDS011;38766;53.194;5.532;2023-08-01T01:40:28;10.02;;;3.50;;
51556;SDS011;38766;53.194;5.532;2023-08-01T01:42:54;9.27;;;3.65;;
51556;SDS011;38766;53.194;5.532;2023-08-01T01:45:20;9.43;;;4.75;;
51556;SDS011;38766;53.194;5.532;2023-08-01T01:47:46;13.85;;;5.47;;
51556;SDS011;38766;53.194;5.532;2023-08-01T01:50:11;17.50;;;4.95;;
51556;SDS011;38766;53.194;5.532;2023-08-01T01:52:37;29.75;;;6.65;;
51556;SDS011;38766;53.194;5.532;2023-08-01T01:55:03;15.60;;;4.80;;
51556;SDS011;38766;53.194;5.532;2023-08-01T01:57:29;7.80;;;2.95;;
51556;SDS011;38766;53.194;5.532;2023-08-01T01:59:54;9.10;;;3.03;;
51556;SDS011;38766;53.194;5.532;2023-08-01T02:02:20;16.23;;;3.25;;
51556;SDS011;38766;53.194;5.532;2023-08-01T02:04:46;14.32;;;3.78;;
51556;SDS011;38766;53.194;5.532;2023-08-01T02:07:13;18.13;;;3.70;;
51556;SDS011;38766;53.194;5.532;2023-08-01T02:09:39;18.45;;;2.97;;
51556;SDS011;38766;53.194;5.532;2023-08-01T02:12:05;6.85;;;2.50;;
51556;SDS011;38766;53.194;5.532;2023-08-01T02:14:33;8.60;;;2.20;;
51556;SDS011;38766;53.194;5.532;2023-08-01T02:16:59;9.68;;;2.35;;
51556;SDS011;38766;53.194;5.532;2023-08-01T02:19:24;8.20;;;2.70;;
51556;SDS011;38766;53.194;5.532;2023-08-01T02:21:50;6.82;;;2.33;;
51556;SDS011;38766;53.194;5.532;2023-08-01T02:24:15;5.80;;;1.67;;
51556;SDS011;38766;53.194;5.532;2023-08-01T02:26:41;6.35;;;1.88;;
51556;SDS011;38766;53.194;5.532;2023-08-01T02:29:07;5.93;;;1.50;;
51556;SDS011;38766;53.194;5.532;2023-08-01T02:31:32;5.40;;;1.60;;
51556;SDS011;38766;53.194;5.532;2023-08-01T02:33:58;7.35;;;2.10;;
51556;SDS011;38766;53.194;5.532;2023-08-01T02:36:23;10.70;;;2.05;;
51556;SDS011;38766;53.194;5.532;2023-08-01T02:38:49;6.53;;;2.17;;
51556;SDS011;38766;53.194;5.532;2023-08-01T02:41:15;7.82;;;2.30;;
51556;SDS011;38766;53.194;5.532;2023-08-01T02:43:40;6.40;;;2.17;;
51556;SDS011;38766;53.194;5.532;2023-08-01T02:46:06;9.15;;;2.33;;
51556;SDS011;38766;53.194;5.532;2023-08-01T02:48:32;7.30;;;2.00;;
51556;SDS011;38766;53.194;5.532;2023-08-01T02:50:57;10.48;;;2.40;;
51556;SDS011;38766;53.194;5.532;2023-08-01T02:53:23;8.30;;;2.22;;
51556;SDS011;38766;53.194;5.532;2023-08-01T02:55:49;6.97;;;1.75;;
51556;SDS011;38766;53.194;5.532;2023-08-01T02:58:15;4.90;;;2.00;;
51556;SDS011;38766;53.194;5.532;2023-08-01T03:00:40;9.00;;;1.83;;
51556;SDS011;38766;53.194;5.532;2023-08-01T03:03:06;4.38;;;1.42;;
51556;SDS011;38766;53.194;5.532;2023-08-01T03:05:32;5.47;;;1.40;;
51556;SDS011;38766;53.194;5.532;2023-08-01T03:08:00;7.18;;;1.70;;
51556;SDS011;38766;53.194;5.532;2023-08-01T03:10:26;8.88;;;2.10;;
51556;SDS011;38766;53.194;5.532;2023-08-01T03:12:52;6.15;;;2.03;;
51556;SDS011;38766;53.194;5.532;2023-08-01T03:15:17;6.85;;;1.90;;
51556;SDS011;38766;53.194;5.532;2023-08-01T03:17:43;7.60;;;1.58;;
51556;SDS011;38766;53.194;5.532;2023-08-01T03:20:09;9.32;;;1.90;;
51556;SDS011;38766;53.194;5.532;2023-08-01T03:22:37;6.85;;;2.05;;
51556;SDS011;38766;53.194;5.532;2023-08-01T03:25:06;6.25;;;1.70;;
51556;SDS011;38766;53.194;5.532;2023-08-01T03:27:33;8.98;;;2.40;;
51556;SDS011;38766;53.194;5.532;2023-08-01T03:29:59;8.07;;;1.95;;
51556;SDS011;38766;53.194;5.532;2023-08-01T03:32:24;4.85;;;1.90;;
51556;SDS011;38766;53.194;5.532;2023-08-01T03:34:50;6.80;;;2.70;;
51556;SDS011;38766;53.194;5.532;2023-08-01T03:37:16;6.75;;;2.30;;
51556;SDS011;38766;53.194;5.532;2023-08-01T03:39:43;7.13;;;2.75;;
51556;SDS011;38766;53.194;5.532;2023-08-01T03:42:09;4.25;;;2.30;;
51556;SDS011;38766;53.194;5.532;2023-08-01T03:44:35;10.20;;;2.90;;
51556;SDS011;38766;53.194;5.532;2023-08-01T03:47:00;5.03;;;2.65;;
51556;SDS011;38766;53.194;5.532;2023-08-01T03:49:26;10.50;;;2.95;;
51556;SDS011;38766;53.194;5.532;2023-08-01T03:51:52;7.63;;;2.97;;
51556;SDS011;38766;53.194;5.532;2023-08-01T03:54:17;9.00;;;3.58;;
51556;SDS011;38766;53.194;5.532;2023-08-01T03:56:43;10.18;;;3.55;;
51556;SDS011;38766;53.194;5.532;2023-08-01T03:59:10;6.95;;;2.80;;
51556;SDS011;38766;53.194;5.532;2023-08-01T04:01:39;7.38;;;2.88;;
51556;SDS011;38766;53.194;5.532;2023-08-01T04:04:05;11.73;;;2.78;;
51556;SDS011;38766;53.194;5.532;2023-08-01T04:06:32;8.15;;;2.80;;
51556;SDS011;38766;53.194;5.532;2023-08-01T04:08:57;6.78;;;2.40;;
51556;SDS011;38766;53.194;5.532;2023-08-01T04:11:25;9.40;;;2.30;;
51556;SDS011;38766;53.194;5.532;2023-08-01T04:13:51;6.65;;;2.20;;
51556;SDS011;38766;53.194;5.532;2023-08-01T04:16:17;9.05;;;2.55;;
51556;SDS011;38766;53.194;5.532;2023-08-01T04:18:43;11.98;;;2.92;;
51556;SDS011;38766;53.194;5.532;2023-08-01T04:21:08;7.60;;;2.53;;
51556;SDS011;38766;53.194;5.532;2023-08-01T04:23:34;9.18;;;2.47;;
51556;SDS011;38766;53.194;5.532;2023-08-01T04:26:00;9.15;;;2.70;;
51556;SDS011;38766;53.194;5.532;2023-08-01T04:28:25;9.43;;;2.92;;
51556;SDS011;38766;53.194;5.532;2023-08-01T04:30:51;9.57;;;2.60;;
51556;SDS011;38766;53.194;5.532;2023-08-01T04:33:18;10.70;;;2.70;;
51556;SDS011;38766;53.194;5.532;2023-08-01T04:35:43;13.27;;;3.65;;
51556;SDS011;38766;53.194;5.532;2023-08-01T04:38:09;7.55;;;2.83;;
51556;SDS011;38766;53.194;5.532;2023-08-01T04:40:35;7.70;;;2.33;;
51556;SDS011;38766;53.194;5.532;2023-08-01T04:43:02;9.27;;;1.63;;
51556;SDS011;38766;53.194;5.532;2023-08-01T04:45:27;7.80;;;1.67;;
51556;SDS011;38766;53.194;5.532;2023-08-01T04:47:53;12.20;;;1.90;;
51556;SDS011;38766;53.194;5.532;2023-08-01T04:50:19;7.97;;;2.03;;
51556;SDS011;38766;53.194;5.532;2023-08-01T04:52:45;6.95;;;1.40;;
51556;SDS011;38766;53.194;5.532;2023-08-01T04:55:10;3.30;;;1.40;;
51556;SDS011;38766;53.194;5.532;2023-08-01T04:57:36;4.30;;;1.40;;
51556;SDS011;38766;53.194;5.532;2023-08-01T05:00:02;8.25;;;1.80;;
51556;SDS011;38766;53.194;5.532;2023-08-01T05:02:28;6.47;;;1.75;;
51556;SDS011;38766;53.194;5.532;2023-08-01T05:04:54;11.68;;;1.75;;
51556;SDS011;38766;53.194;5.532;2023-08-01T05:07:20;6.15;;;1.95;;
51556;SDS011;38766;53.194;5.532;2023-08-01T05:09:45;8.23;;;2.17;;
51556;SDS011;38766;53.194;5.532;2023-08-01T05:12:11;10.32;;;2.42;;
51556;SDS011;38766;53.194;5.532;2023-08-01T05:14:37;11.23;;;2.58;;
51556;SDS011;38766;53.194;5.532;2023-08-01T05:17:02;6.85;;;2.10;;
51556;SDS011;38766;53.194;5.532;2023-08-01T05:19:28;10.07;;;2.28;;
51556;SDS011;38766;53.194;5.532;2023-08-01T05:21:54;6.78;;;1.80;;
51556;SDS011;38766;53.194;5.532;2023-08-01T05:24:20;9.05;;;2.22;;
51556;SDS011;38766;53.194;5.532;2023-08-01T05:26:46;8.23;;;2.00;;
51556;SDS011;38766;53.194;5.532;2023-08-01T05:29:12;6.65;;;1.52;;
51556;SDS011;38766;53.194;5.532;2023-08-01T05:31:38;9.88;;;2.83;;
51556;SDS011;38766;53.194;5.532;2023-08-01T05:34:03;5.10;;;1.60;;
51556;SDS011;38766;53.194;5.532;2023-08-01T05:36:29;10.23;;;1.80;;
51556;SDS011;38766;53.194;5.532;2023-08-01T05:38:55;8.75;;;1.60;;
51556;SDS011;38766;53.194;5.532;2023-08-01T05:41:21;6.32;;;1.55;;
51556;SDS011;38766;53.194;5.532;2023-08-01T05:43:48;10.90;;;1.67;;
51556;SDS011;38766;53.194;5.532;2023-08-01T05:46:14;9.05;;;1.73;;
51556;SDS011;38766;53.194;5.532;2023-08-01T05:48:40;6.85;;;1.95;;
51556;SDS011;38766;53.194;5.532;2023-08-01T05:51:06;5.65;;;2.00;;
51556;SDS011;38766;53.194;5.532;2023-08-01T05:53:32;10.57;;;2.03;;
51556;SDS011;38766;53.194;5.532;2023-08-01T05:55:57;10.48;;;2.20;;
51556;SDS011;38766;53.194;5.532;2023-08-01T05:58:23;11.27;;;2.00;;
51556;SDS011;38766;53.194;5.532;2023-08-01T06:00:49;6.75;;;2.35;;
51556;SDS011;38766;53.194;5.532;2023-08-01T06:03:15;8.27;;;2.45;;
51556;SDS011;38766;53.194;5.532;2023-08-01T06:05:41;8.85;;;2.42;;
51556;SDS011;38766;53.194;5.532;2023-08-01T06:08:07;9.95;;;1.92;;
51556;SDS011;38766;53.194;5.532;2023-08-01T06:10:33;9.35;;;2.10;;
51556;SDS011;38766;53.194;5.532;2023-08-01T06:13:03;8.07;;;1.90;;
51556;SDS011;38766;53.194;5.532;2023-08-01T06:15:28;9.90;;;2.17;;
51556;SDS011;38766;53.194;5.532;2023-08-01T06:17:54;6.40;;;2.20;;
51556;SDS011;38766;53.194;5.532;2023-08-01T06:20:20;9.57;;;2.38;;
51556;SDS011;38766;53.194;5.532;2023-08-01T06:22:45;9.57;;;2.08;;
51556;SDS011;38766;53.194;5.532;2023-08-01T06:25:11;6.45;;;1.90;;
51556;SDS011;38766;53.194;5.532;2023-08-01T06:27:37;15.02;;;3.33;;
51556;SDS011;38766;53.194;5.532;2023-08-01T06:30:03;10.10;;;2.53;;
51556;SDS011;38766;53.194;5.532;2023-08-01T06:32:29;15.65;;;3.17;;
51556;SDS011;38766;53.194;5.532;2023-08-01T06:34:55;8.60;;;2.95;;
51556;SDS011;38766;53.194;5.532;2023-08-01T06:37:21;14.48;;;2.95;;
51556;SDS011;38766;53.194;5.532;2023-08-01T06:39:46;14.57;;;3.00;;
51556;SDS011;38766;53.194;5.532;2023-08-01T06:42:12;12.73;;;3.22;;
51556;SDS011;38766;53.194;5.532;2023-08-01T06:44:38;10.63;;;2.70;;
51556;SDS011;38766;53.194;5.532;2023-08-01T06:47:05;8.98;;;2.30;;
51556;SDS011;38766;53.194;5.532;2023-08-01T06:49:31;8.65;;;3.67;;
51556;SDS011;38766;53.194;5.532;2023-08-01T06:51:56;11.27;;;2.70;;
51556;SDS011;38766;53.194;5.532;2023-08-01T06:54:22;12.52;;;2.80;;
51556;SDS011;38766;53.194;5.532;2023-08-01T06:56:47;13.77;;;3.38;;
51556;SDS011;38766;53.194;5.532;2023-08-01T06:59:14;20.20;;;3.47;;
51556;SDS011;38766;53.194;5.532;2023-08-01T07:01:40;15.70;;;3.50;;
51556;SDS011;38766;53.194;5.532;2023-08-01T07:04:08;10.52;;;2.53;;
51556;SDS011;38766;53.194;5.532;2023-08-01T07:06:35;10.88;;;2.35;;
51556;SDS011;38766;53.194;5.532;2023-08-01T07:09:00;14.77;;;2.80;;
51556;SDS011;38766;53.194;5.532;2023-08-01T07:11:26;16.15;;;3.15;;
51556;SDS011;38766;53.194;5.532;2023-08-01T07:13:52;12.07;;;3.25;;
51556;SDS011;38766;53.194;5.532;2023-08-01T07:16:17;16.80;;;3.03;;
51556;SDS011;38766;53.194;5.532;2023-08-01T07:18:43;17.17;;;3.17;;
51556;SDS011;38766;53.194;5.532;2023-08-01T07:21:08;17.92;;;3.17;;
51556;SDS011;38766;53.194;5.532;2023-08-01T07:23:34;8.65;;;2.35;;
51556;SDS011;38766;53.194;5.532;2023-08-01T07:26:03;11.85;;;2.50;;
51556;SDS011;38766;53.194;5.532;2023-08-01T07:28:29;10.90;;;2.53;;
51556;SDS011;38766;53.194;5.532;2023-08-01T07:31:01;9.63;;;2.55;;
51556;SDS011;38766;53.194;5.532;2023-08-01T07:35:54;16.50;;;2.63;;
51556;SDS011;38766;53.194;5.532;2023-08-01T07:38:20;12.95;;;2.55;;
51556;SDS011;38766;53.194;5.532;2023-08-01T07:40:46;12.95;;;2.70;;
51556;SDS011;38766;53.194;5.532;2023-08-01T07:43:11;10.90;;;2.42;;
51556;SDS011;38766;53.194;5.532;2023-08-01T07:45:38;9.02;;;2.08;;
51556;SDS011;38766;53.194;5.532;2023-08-01T07:48:03;8.45;;;2.65;;
51556;SDS011;38766;53.194;5.532;2023-08-01T07:50:29;10.63;;;2.28;;
51556;SDS011;38766;53.194;5.532;2023-08-01T07:52:55;12.07;;;2.67;;
51556;SDS011;38766;53.194;5.532;2023-08-01T07:55:21;14.05;;;3.00;;
51556;SDS011;38766;53.194;5.532;2023-08-01T07:57:49;13.13;;;2.75;;
51556;SDS011;38766;53.194;5.532;2023-08-01T08:00:15;8.95;;;2.40;;
51556;SDS011;38766;53.194;5.532;2023-08-01T08:02:41;7.85;;;2.40;;
51556;SDS011;38766;53.194;5.532;2023-08-01T08:05:08;12.40;;;2.25;;
51556;SDS011;38766;53.194;5.532;2023-08-01T08:07:35;8.75;;;2.30;;
51556;SDS011;38766;53.194;5.532;2023-08-01T08:10:02;8.73;;;2.35;;
51556;SDS011;38766;53.194;5.532;2023-08-01T08:12:28;4.50;;;1.83;;
51556;SDS011;38766;53.194;5.532;2023-08-01T08:14:54;5.82;;;2.17;;
51556;SDS011;38766;53.194;5.532;2023-08-01T08:17:20;8.30;;;2.13;;
51556;SDS011;38766;53.194;5.532;2023-08-01T08:19:46;6.32;;;2.35;;
51556;SDS011;38766;53.194;5.532;2023-08-01T08:22:11;5.53;;;1.80;;
51556;SDS011;38766;53.194;5.532;2023-08-01T08:24:37;5.55;;;1.55;;
51556;SDS011;38766;53.194;5.532;2023-08-01T08:27:02;7.13;;;1.98;;
51556;SDS011;38766;53.194;5.532;2023-08-01T08:29:29;6.20;;;1.70;;
51556;SDS011;38766;53.194;5.532;2023-08-01T08:31:56;5.13;;;2.10;;
51556;SDS011;38766;53.194;5.532;2023-08-01T08:34:22;10.07;;;2.13;;
51556;SDS011;38766;53.194;5.532;2023-08-01T08:36:47;7.15;;;2.33;;
51556;SDS011;38766;53.194;5.532;2023-08-01T08:39:15;5.63;;;2.30;;
51556;SDS011;38766;53.194;5.532;2023-08-01T08:41:48;6.30;;;1.90;;
51556;SDS011;38766;53.194;5.532;2023-08-01T08:44:17;7.20;;;2.15;;
51556;SDS011;38766;53.194;5.532;2023-08-01T08:46:46;7.47;;;2.60;;
51556;SDS011;38766;53.194;5.532;2023-08-01T08:49:15;7.00;;;2.47;;
51556;SDS011;38766;53.194;5.532;2023-08-01T08:51:41;9.25;;;2.83;;
51556;SDS011;38766;53.194;5.532;2023-08-01T08:54:08;8.98;;;2.60;;
51556;SDS011;38766;53.194;5.532;2023-08-01T08:56:35;6.13;;;2.40;;
51556;SDS011;38766;53.194;5.532;2023-08-01T08:59:01;9.90;;;2.88;;
51556;SDS011;38766;53.194;5.532;2023-08-01T09:01:27;10.73;;;2.90;;
51556;SDS011;38766;53.194;5.532;2023-08-01T09:03:52;12.82;;;3.00;;
51556;SDS011;38766;53.194;5.532;2023-08-01T09:06:21;11.70;;;3.45;;
51556;SDS011;38766;53.194;5.532;2023-08-01T09:08:50;11.85;;;3.35;;
51556;SDS011;38766;53.194;5.532;2023-08-01T09:11:20;9.35;;;2.80;;
51556;SDS011;38766;53.194;5.532;2023-08-01T09:13:46;13.80;;;3.85;;
51556;SDS011;38766;53.194;5.532;2023-08-01T09:16:12;12.07;;;2.90;;
51556;SDS011;38766;53.194;5.532;2023-08-01T09:18:46;10.23;;;2.90;;
51556;SDS011;38766;53.194;5.532;2023-08-01T09:21:19;8.10;;;2.78;;
51556;SDS011;38766;53.194;5.532;2023-08-01T09:23:46;8.60;;;2.85;;
51556;SDS011;38766;53.194;5.532;2023-08-01T09:26:15;9.55;;;2.15;;
51556;SDS011;38766;53.194;5.532;2023-08-01T09:28:42;5.22;;;2.15;;
51556;SDS011;38766;53.194;5.532;2023-08-01T09:31:09;7.30;;;2.80;;
51556;SDS011;38766;53.194;5.532;2023-08-01T09:33:39;8.52;;;2.70;;
51556;SDS011;38766;53.194;5.532;2023-08-01T09:36:06;7.10;;;2.20;;
51556;SDS011;38766;53.194;5.532;2023-08-01T09:38:36;8.38;;;2.30;;
51556;SDS011;38766;53.194;5.532;2023-08-01T09:41:03;7.78;;;2.15;;
51556;SDS011;38766;53.194;5.532;2023-08-01T09:43:35;9.02;;;2.30;;
51556;SDS011;38766;53.194;5.532;2023-08-01T09:46:02;12.05;;;2.28;;
51556;SDS011;38766;53.194;5.532;2023-08-01T09:48:29;7.93;;;2.10;;
51556;SDS011;38766;53.194;5.532;2023-08-01T09:51:08;5.97;;;2.50;;
51556;SDS011;38766;53.194;5.532;2023-08-01T09:53:36;5.55;;;2.15;;
51556;SDS011;38766;53.194;5.532;2023-08-01T09:56:13;6.53;;;2.25;;
51556;SDS011;38766;53.194;5.532;2023-08-01T09:58:42;6.20;;;2.30;;
51556;SDS011;38766;53.194;5.532;2023-08-01T10:01:09;5.97;;;2.00;;
51556;SDS011;38766;53.194;5.532;2023-08-01T10:03:36;8.88;;;2.17;;
51556;SDS011;38766;53.194;5.532;2023-08-01T10:06:01;9.73;;;2.10;;
51556;SDS011;38766;53.194;5.532;2023-08-01T10:08:29;10.55;;;2.22;;
51556;SDS011;38766;53.194;5.532;2023-08-01T10:10:57;7.70;;;2.05;;
51556;SDS011;38766;53.194;5.532;2023-08-01T10:13:23;7.90;;;1.88;;
51556;SDS011;38766;53.194;5.532;2023-08-01T10:15:52;9.48;;;1.77;;
51556;SDS011;38766;53.194;5.532;2023-08-01T10:18:18;8.38;;;1.95;;
51556;SDS011;38766;53.194;5.532;2023-08-01T10:20:44;7.28;;;2.08;;
51556;SDS011;38766;53.194;5.532;2023-08-01T10:23:11;5.07;;;1.80;;
51556;SDS011;38766;53.194;5.532;2023-08-01T10:25:37;7.63;;;1.83;;
51556;SDS011;38766;53.194;5.532;2023-08-01T10:28:05;6.97;;;1.95;;
51556;SDS011;38766;53.194;5.532;2023-08-01T10:30:31;6.63;;;1.27;;
51556;SDS011;38766;53.194;5.532;2023-08-01T10:32:58;7.03;;;2.15;;
51556;SDS011;38766;53.194;5.532;2023-08-01T10:35:34;7.85;;;1.65;;
51556;SDS011;38766;53.194;5.532;2023-08-01T10:38:08;9.05;;;2.20;;
51556;SDS011;38766;53.194;5.532;2023-08-01T10:40:37;8.18;;;2.40;;
51556;SDS011;38766;53.194;5.532;2023-08-01T10:43:04;7.68;;;1.92;;
51556;SDS011;38766;53.194;5.532;2023-08-01T10:45:31;7.65;;;2.50;;
51556;SDS011;38766;53.194;5.532;2023-08-01T10:48:07;8.73;;;2.40;;
51556;SDS011;38766;53.194;5.532;2023-08-01T10:50:33;5.97;;;1.95;;
51556;SDS011;38766;53.194;5.532;2023-08-01T10:53:06;8.32;;;2.67;;
51556;SDS011;38766;53.194;5.532;2023-08-01T10:58:09;8.45;;;2.63;;
51556;SDS011;38766;53.194;5.532;2023-08-01T11:00:36;8.88;;;2.90;;
51556;SDS011;38766;53.194;5.532;2023-08-01T11:03:02;8.05;;;2.63;;
51556;SDS011;38766;53.194;5.532;2023-08-01T11:05:28;10.07;;;2.70;;
51556;SDS011;38766;53.194;5.532;2023-08-01T11:07:58;7.68;;;2.58;;
51556;SDS011;38766;53.194;5.532;2023-08-01T11:10:29;8.32;;;2.30;;
51556;SDS011;38766;53.194;5.532;2023-08-01T11:12:56;12.15;;;2.53;;
51556;SDS011;38766;53.194;5.532;2023-08-01T11:15:22;8.50;;;2.47;;
51556;SDS011;38766;53.194;5.532;2023-08-01T11:17:49;7.68;;;2.78;;
51556;SDS011;38766;53.194;5.532;2023-08-01T11:20:16;11.25;;;2.38;;
51556;SDS011;38766;53.194;5.532;2023-08-01T11:23:04;9.45;;;2.20;;
51556;SDS011;38766;53.194;5.532;2023-08-01T11:25:33;5.82;;;2.25;;
51556;SDS011;38766;53.194;5.532;2023-08-01T11:28:03;7.47;;;2.30;;
51556;SDS011;38766;53.194;5.532;2023-08-01T11:30:33;8.93;;;2.75;;
51556;SDS011;38766;53.194;5.532;2023-08-01T11:32:59;7.72;;;2.40;;
51556;SDS011;38766;53.194;5.532;2023-08-01T11:35:25;7.13;;;2.42;;
51556;SDS011;38766;53.194;5.532;2023-08-01T11:37:51;8.77;;;2.80;;
51556;SDS011;38766;53.194;5.532;2023-08-01T11:40:17;9.52;;;2.47;;
51556;SDS011;38766;53.194;5.532;2023-08-01T11:42:48;10.43;;;2.40;;
51556;SDS011;38766;53.194;5.532;2023-08-01T11:45:16;6.35;;;2.17;;
51556;SDS011;38766;53.194;5.532;2023-08-01T11:47:48;9.15;;;2.33;;
51556;SDS011;38766;53.194;5.532;2023-08-01T11:50:14;7.53;;;2.20;;
51556;SDS011;38766;53.194;5.532;2023-08-01T11:52:49;12.00;;;2.63;;
51556;SDS011;38766;53.194;5.532;2023-08-01T11:55:33;7.43;;;2.33;;
51556;SDS011;38766;53.194;5.532;2023-08-01T11:58:00;10.05;;;2.58;;
51556;SDS011;38766;53.194;5.532;2023-08-01T12:00:27;7.43;;;2.70;;
51556;SDS011;38766;53.194;5.532;2023-08-01T12:03:06;7.80;;;2.53;;
51556;SDS011;38766;53.194;5.532;2023-08-01T12:05:38;7.75;;;2.10;;
51556;SDS011;38766;53.194;5.532;2023-08-01T12:08:10;5.40;;;2.15;;
51556;SDS011;38766;53.194;5.532;2023-08-01T12:10:43;7.35;;;2.25;;
51556;SDS011;38766;53.194;5.532;2023-08-01T12:13:23;5.95;;;2.30;;
51556;SDS011;38766;53.194;5.532;2023-08-01T12:15:53;10.52;;;2.60;;
51556;SDS011;38766;53.194;5.532;2023-08-01T12:18:26;12.07;;;2.47;;
51556;SDS011;38766;53.194;5.532;2023-08-01T12:20:53;7.22;;;2.50;;
51556;SDS011;38766;53.194;5.532;2023-08-01T12:23:19;7.97;;;2.33;;
51556;SDS011;38766;53.194;5.532;2023-08-01T12:25:46;12.18;;;2.55;;
51556;SDS011;38766;53.194;5.532;2023-08-01T12:28:15;8.63;;;2.10;;
51556;SDS011;38766;53.194;5.532;2023-08-01T12:30:42;3.33;;;1.60;;
51556;SDS011;38766;53.194;5.532;2023-08-01T12:33:08;5.18;;;1.70;;
51556;SDS011;38766;53.194;5.532;2023-08-01T12:35:34;6.90;;;1.88;;
51556;SDS011;38766;53.194;5.532;2023-08-01T12:38:03;8.27;;;2.22;;
51556;SDS011;38766;53.194;5.532;2023-08-01T12:40:29;6.28;;;2.00;;
51556;SDS011;38766;53.194;5.532;2023-08-01T12:42:54;7.40;;;2.00;;
51556;SDS011;38766;53.194;5.532;2023-08-01T12:45:20;5.80;;;2.13;;
51556;SDS011;38766;53.194;5.532;2023-08-01T12:47:46;7.20;;;1.58;;
51556;SDS011;38766;53.194;5.532;2023-08-01T12:50:11;9.13;;;1.88;;
51556;SDS011;38766;53.194;5.532;2023-08-01T12:52:37;4.72;;;1.83;;
51556;SDS011;38766;53.194;5.532;2023-08-01T12:55:02;5.45;;;1.30;;
51556;SDS011;38766;53.194;5.532;2023-08-01T12:57:28;3.35;;;1.33;;
51556;SDS011;38766;53.194;5.532;2023-08-01T12:59:54;9.07;;;2.10;;
51556;SDS011;38766;53.194;5.532;2023-08-01T13:02:19;9.20;;;1.58;;
51556;SDS011;38766;53.194;5.532;2023-08-01T13:04:45;4.30;;;1.83;;
51556;SDS011;38766;53.194;5.532;2023-08-01T13:07:11;4.20;;;1.52;;
51556;SDS011;38766;53.194;5.532;2023-08-01T13:09:36;7.93;;;2.05;;
51556;SDS011;38766;53.194;5.532;2023-08-01T13:12:02;5.47;;;1.83;;
51556;SDS011;38766;53.194;5.532;2023-08-01T13:14:28;4.82;;;1.60;;
51556;SDS011;38766;53.194;5.532;2023-08-01T13:16:54;6.10;;;1.80;;
51556;SDS011;38766;53.194;5.532;2023-08-01T13:19:19;6.43;;;1.90;;
51556;SDS011;38766;53.194;5.532;2023-08-01T13:21:45;8.73;;;1.95;;
51556;SDS011;38766;53.194;5.532;2023-08-01T13:24:10;7.32;;;2.78;;
51556;SDS011;38766;53.194;5.532;2023-08-01T13:26:36;8.63;;;2.40;;
51556;SDS011;38766;53.194;5.532;2023-08-01T13:29:02;9.80;;;2.50;;
51556;SDS011;38766;53.194;5.532;2023-08-01T13:31:27;10.93;;;2.63;;
51556;SDS011;38766;53.194;5.532;2023-08-01T13:33:54;7.35;;;2.00;;
51556;SDS011;38766;53.194;5.532;2023-08-01T13:36:20;3.83;;;1.45;;
51556;SDS011;38766;53.194;5.532;2023-08-01T13:38:46;3.53;;;1.25;;
51556;SDS011;38766;53.194;5.532;2023-08-01T13:41:12;7.10;;;1.50;;
51556;SDS011;38766;53.194;5.532;2023-08-01T13:43:38;9.10;;;1.23;;
51556;SDS011;38766;53.194;5.532;2023-08-01T13:46:14;2.28;;;1.27;;
51556;SDS011;38766;53.194;5.532;2023-08-01T13:48:44;6.65;;;1.73;;
51556;SDS011;38766;53.194;5.532;2023-08-01T13:51:10;6.45;;;2.10;;
51556;SDS011;38766;53.194;5.532;2023-08-01T13:53:36;5.45;;;1.50;;
51556;SDS011;38766;53.194;5.532;2023-08-01T13:56:08;8.32;;;2.28;;
51556;SDS011;38766;53.194;5.532;2023-08-01T13:58:34;5.07;;;2.38;;
51556;SDS011;38766;53.194;5.532;2023-08-01T14:01:03;6.70;;;2.50;;
51556;SDS011;38766;53.194;5.532;2023-08-01T14:03:32;9.35;;;2.72;;
51556;SDS011;38766;53.194;5.532;2023-08-01T14:06:08;7.60;;;2.70;;
51556;SDS011;38766;53.194;5.532;2023-08-01T14:08:36;8.63;;;2.55;;
51556;SDS011;38766;53.194;5.532;2023-08-01T14:11:03;4.25;;;1.95;;
51556;SDS011;38766;53.194;5.532;2023-08-01T14:13:30;6.75;;;2.50;;
51556;SDS011;38766;53.194;5.532;2023-08-01T14:15:56;5.57;;;2.10;;
51556;SDS011;38766;53.194;5.532;2023-08-01T14:18:21;9.77;;;2.00;;
51556;SDS011;38766;53.194;5.532;2023-08-01T14:20:47;6.55;;;2.03;;
51556;SDS011;38766;53.194;5.532;2023-08-01T14:23:13;4.70;;;1.92;;
51556;SDS011;38766;53.194;5.532;2023-08-01T14:25:38;8.15;;;2.00;;
51556;SDS011;38766;53.194;5.532;2023-08-01T14:28:04;7.18;;;2.08;;
51556;SDS011;38766;53.194;5.532;2023-08-01T14:30:30;4.55;;;1.95;;
51556;SDS011;38766;53.194;5.532;2023-08-01T14:32:59;9.00;;;2.15;;
51556;SDS011;38766;53.194;5.532;2023-08-01T14:35:25;7.40;;;1.88;;
51556;SDS011;38766;53.194;5.532;2023-08-01T14:37:51;6.90;;;1.80;;
51556;SDS011;38766;53.194;5.532;2023-08-01T14:40:17;5.15;;;1.80;;
51556;SDS011;38766;53.194;5.532;2023-08-01T14:42:43;8.85;;;2.30;;
51556;SDS011;38766;53.194;5.532;2023-08-01T14:45:08;8.30;;;1.88;;
51556;SDS011;38766;53.194;5.532;2023-08-01T14:47:34;6.85;;;1.80;;
51556;SDS011;38766;53.194;5.532;2023-08-01T14:50:02;5.07;;;1.40;;